| time (UTC) | temp C | wind direction | speed KPH | gust KPH | rain 1hr cm | rain 24hr cm | rain mn cm | humidity % | barometer mb |
| 20260906100013 | 29 | 89 | 1.6 | 11.3 | 0.00 | 0.00 | 0.00 | 51 | 1020.4 |
| 20260906094556 | 28 | 80 | 6.4 | 16.1 | 0.00 | 0.00 | 0.00 | 52 | 1020.6 |
| 20260906093008 | 29 | 102 | 3.2 | 8.0 | 0.00 | 0.00 | 0.00 | 52 | 1020.7 |
| 20260906091531 | 28 | 114 | 3.2 | 14.5 | 0.00 | 0.00 | 0.00 | 54 | 1020.8 |
| 20260906090047 | 28 | 103 | 4.8 | 14.5 | 0.00 | 0.00 | 0.00 | 53 | 1020.8 |
| 20260906084605 | 28 | 102 | 6.4 | 14.5 | 0.00 | 0.00 | 0.00 | 54 | 1020.8 |
| 20260906083042 | 27 | 67 | 4.8 | 12.9 | 0.00 | 0.00 | 0.00 | 55 | 1020.7 |
| 20260906081550 | 27 | 40 | 4.8 | 16.1 | 0.00 | 0.00 | 0.00 | 55 | 1020.7 |
| 20260906080022 | 27 | 77 | 6.4 | 14.5 | 0.00 | 0.00 | 0.00 | 58 | 1020.7 |
| 20260906074512 | 27 | 52 | 4.8 | 16.1 | 0.00 | 0.00 | 0.00 | 60 | 1020.7 |
| 20260906073028 | 26 | 60 | 3.2 | 14.5 | 0.00 | 0.00 | 0.00 | 62 | 1020.6 |
| 20260906071546 | 26 | 78 | 1.6 | 9.7 | 0.00 | 0.00 | 0.00 | 63 | 1020.4 |
| 20260906070100 | 25 | 322 | 3.2 | 9.7 | 0.00 | 0.00 | 0.00 | 65 | 1020.3 |
| 20260906064525 | 25 | 60 | 1.6 | 9.7 | 0.00 | 0.00 | 0.00 | 67 | 1020.2 |
| 20260906063048 | 25 | 360 | 1.6 | 6.4 | 0.00 | 0.00 | 0.00 | 68 | 1020.0 |
| 20260906061600 | 24 | 355 | 1.6 | 8.0 | 0.00 | 0.00 | 0.00 | 71 | 1019.8 |
| 20260906060022 | 23 | 333 | 1.6 | 6.4 | 0.00 | 0.00 | 0.00 | 73 | 1019.8 |
| 20260906054542 | 23 | 355 | 3.2 | 6.4 | 0.00 | 0.00 | 0.00 | 74 | 1019.6 |
| 20260906053001 | 22 | 34 | 3.2 | 8.0 | 0.00 | 0.00 | 0.00 | 75 | 1019.4 |
| 20260906051530 | 22 | 355 | 1.6 | 4.8 | 0.00 | 0.00 | 0.00 | 76 | 1019.4 |
| 20260906044510 | 22 | 349 | 1.6 | 3.2 | 0.00 | 0.00 | 0.00 | 75 | 1019.0 |
| 20260906043045 | 22 | 355 | 1.6 | 6.4 | 0.00 | 0.00 | 0.00 | 75 | 1018.9 |
| 20260906041511 | 22 | 14 | 0.0 | 8.0 | 0.00 | 0.00 | 0.00 | 76 | 1018.7 |
| 20260906040038 | 22 | 355 | 3.2 | 8.0 | 0.00 | 0.00 | 0.00 | 76 | 1018.4 |
| 20260906034559 | 22 | 360 | 1.6 | 6.4 | 0.00 | 0.00 | 0.00 | 77 | 1018.4 |
| 20260906033032 | 22 | 333 | 1.6 | 6.4 | 0.00 | 0.00 | 0.00 | 79 | 1018.3 |
| 20260906031540 | 22 | 360 | 3.2 | 8.0 | 0.00 | 0.00 | 0.00 | 80 | 1018.3 |
| 20260906030052 | 22 | 337 | 3.2 | 6.4 | 0.00 | 0.00 | 0.00 | 81 | 1018.3 |
| 20260906024603 | 22 | 346 | 1.6 | 4.8 | 0.00 | 0.00 | 0.00 | 82 | 1018.4 |
| 20260906023023 | 23 | 355 | 1.6 | 3.2 | 0.00 | 0.00 | 0.00 | 82 | 1018.4 |
| 20260906021535 | 23 | 336 | 1.6 | 6.4 | 0.00 | 0.00 | 0.00 | 82 | 1018.1 |
| 20260906020044 | 23 | 360 | 0.0 | 4.8 | 0.00 | 0.00 | 0.00 | 82 | 1018.1 |
| 20260906014508 | 23 | 337 | 1.6 | 3.2 | 0.00 | 0.00 | 0.00 | 82 | 1018.1 |
| 20260906013042 | 23 | 355 | 1.6 | 4.8 | 0.00 | 0.00 | 0.00 | 81 | 1018.0 |
| 20260906011550 | 23 | 28 | 1.6 | 4.8 | 0.00 | 0.00 | 0.00 | 82 | 1018.0 |
| 20260906010027 | 23 | 355 | 0.0 | 4.8 | 0.00 | 0.00 | 0.00 | 84 | 1017.8 |
| 20260906004544 | 23 | 61 | 0.0 | 1.6 | 0.00 | 0.00 | 0.00 | 85 | 1017.9 |
| 20260906003111 | 23 | 61 | 0.0 | 3.2 | 0.00 | 0.00 | 0.00 | 86 | 1017.9 |
| 20260906001521 | 24 | 53 | 0.0 | 3.2 | 0.00 | 0.00 | 0.00 | 86 | 1018.0 |
| 20260906000041 | 24 | 16 | 0.0 | 3.2 | 0.00 | 0.00 | 0.00 | 86 | 1017.9 |
| 20260905234551 | 24 | 355 | 0.0 | 4.8 | 0.00 | 0.00 | 0.00 | 86 | 1017.9 |
| 20260905233005 | 24 | 32 | 0.0 | 3.2 | 0.00 | 0.00 | 0.00 | 88 | 1017.7 |
| 20260905231531 | 25 | 336 | 0.0 | 4.8 | 0.00 | 0.00 | 0.00 | 88 | 1017.7 |
| 20260905230049 | 25 | 318 | 1.6 | 4.8 | 0.00 | 0.00 | 0.00 | 89 | 1017.6 |
| 20260905224614 | 25 | 339 | 1.6 | 3.2 | 0.00 | 0.00 | 0.00 | 88 | 1017.4 |
| 20260905223026 | 25 | 338 | 1.6 | 6.4 | 0.00 | 0.00 | 0.00 | 87 | 1017.4 |
| 20260905221606 | 25 | 142 | 0.0 | 3.2 | 0.00 | 0.00 | 0.00 | 86 | 1017.3 |
| 20260905220059 | 25 | 142 | 0.0 | 3.2 | 0.00 | 0.00 | 0.00 | 85 | 1017.1 |
| 20260905214504 | 26 | 142 | 0.0 | 0.0 | 0.00 | 0.00 | 0.00 | 84 | 1017.0 |
| 20260905213021 | 26 | 142 | 0.0 | 1.6 | 0.00 | 0.00 | 0.00 | 84 | 1016.9 |
| 20260905211546 | 26 | 142 | 0.0 | 3.2 | 0.00 | 0.00 | 0.00 | 84 | 1016.6 |
| 20260905210100 | 26 | 125 | 1.6 | 4.8 | 0.00 | 0.00 | 0.00 | 83 | 1016.5 |
| 20260905204528 | 26 | 112 | 1.6 | 4.8 | 0.00 | 0.00 | 0.00 | 83 | 1016.6 |
| 20260905203044 | 26 | 121 | 1.6 | 4.8 | 0.00 | 0.00 | 0.00 | 82 | 1016.5 |
| 20260905201615 | 26 | 159 | 0.0 | 4.8 | 0.00 | 0.00 | 0.00 | 81 | 1016.4 |
| 20260905200024 | 27 | 173 | 1.6 | 6.4 | 0.00 | 0.00 | 0.00 | 80 | 1016.4 |
| 20260905194544 | 27 | 169 | 1.6 | 8.0 | 0.00 | 0.00 | 0.00 | 80 | 1016.2 |
| 20260905193001 | 27 | 168 | 1.6 | 6.4 | 0.00 | 0.00 | 0.00 | 79 | 1016.0 |
| 20260905191515 | 27 | 176 | 1.6 | 8.0 | 0.00 | 0.00 | 0.00 | 78 | 1015.6 |
| 20260905190039 | 28 | 155 | 1.6 | 8.0 | 0.00 | 0.00 | 0.00 | 76 | 1015.5 |
| 20260905184555 | 28 | 114 | 0.0 | 3.2 | 0.00 | 0.00 | 0.00 | 74 | 1015.3 |
| 20260905183009 | 28 | 103 | 1.6 | 4.8 | 0.00 | 0.00 | 0.00 | 73 | 1015.0 |
| 20260905181539 | 28 | 128 | 3.2 | 8.0 | 0.00 | 0.00 | 0.00 | 72 | 1014.8 |
| 20260905180052 | 29 | 106 | 3.2 | 6.4 | 0.00 | 0.00 | 0.00 | 70 | 1014.6 |
| 20260905174511 | 30 | 108 | 1.6 | 8.0 | 0.00 | 0.00 | 0.00 | 70 | 1014.4 |
| 20260905173053 | 30 | 148 | 1.6 | 8.0 | 0.00 | 0.00 | 0.00 | 69 | 1014.2 |
| 20260905171600 | 31 | 90 | 4.8 | 14.5 | 0.00 | 0.00 | 0.00 | 65 | 1014.0 |
| 20260905170018 | 32 | 159 | 3.2 | 4.8 | 0.00 | 0.00 | 0.00 | 51 | 1013.9 |
| 20260905164553 | 33 | 276 | 1.6 | 4.8 | 0.00 | 0.00 | 0.00 | 47 | 1013.8 |
| 20260905163008 | 33 | 231 | 1.6 | 6.4 | 0.00 | 0.00 | 0.00 | 46 | 1013.6 |
| 20260905161525 | 33 | 259 | 1.6 | 6.4 | 0.00 | 0.00 | 0.00 | 46 | 1013.6 |
| 20260905160047 | 34 | 311 | 0.0 | 4.8 | 0.00 | 0.00 | 0.00 | 46 | 1013.6 |
| 20260905154512 | 33 | 228 | 1.6 | 8.0 | 0.00 | 0.00 | 0.00 | 47 | 1013.5 |
| 20260905153030 | 33 | 192 | 1.6 | 6.4 | 0.00 | 0.00 | 0.00 | 47 | 1013.4 |
| 20260905151550 | 34 | 256 | 0.0 | 4.8 | 0.00 | 0.00 | 0.00 | 47 | 1013.4 |
| 20260905150012 | 33 | 277 | 1.6 | 6.4 | 0.00 | 0.00 | 0.00 | 48 | 1013.4 |
| 20260905144636 | 33 | 335 | 3.2 | 8.0 | 0.00 | 0.00 | 0.00 | 48 | 1013.5 |
| 20260905143058 | 33 | 149 | 0.0 | 4.8 | 0.00 | 0.00 | 0.00 | 49 | 1013.5 |
| 20260905141522 | 33 | 297 | 3.2 | 6.4 | 0.00 | 0.00 | 0.00 | 50 | 1013.6 |
| 20260905140037 | 32 | 167 | 3.2 | 9.7 | 0.00 | 0.00 | 0.00 | 52 | 1013.8 |
| 20260905134555 | 32 | 257 | 1.6 | 9.7 | 0.00 | 0.00 | 0.00 | 52 | 1013.8 |
| 20260905133004 | 32 | 284 | 1.6 | 6.4 | 0.00 | 0.00 | 0.00 | 52 | 1014.0 |
| 20260905131531 | 32 | 281 | 3.2 | 11.3 | 0.00 | 0.00 | 0.00 | 52 | 1014.1 |
| 20260905130044 | 32 | 323 | 1.6 | 6.4 | 0.00 | 0.00 | 0.00 | 51 | 1014.2 |
| 20260905124517 | 32 | 169 | 3.2 | 8.0 | 0.00 | 0.00 | 0.00 | 51 | 1014.5 |
| 20260905123033 | 32 | 164 | 3.2 | 8.0 | 0.00 | 0.00 | 0.00 | 51 | 1014.5 |
| 20260905121550 | 31 | 313 | 3.2 | 4.8 | 0.00 | 0.00 | 0.00 | 52 | 1014.7 |
| 20260905120006 | 31 | 256 | 1.6 | 8.0 | 0.00 | 0.00 | 0.00 | 53 | 1014.9 |
| 20260905114534 | 31 | 290 | 3.2 | 9.7 | 0.00 | 0.00 | 0.00 | 52 | 1014.9 |
| 20260905113030 | 31 | 233 | 3.2 | 9.7 | 0.00 | 0.00 | 0.00 | 52 | 1014.9 |
| 20260905111552 | 31 | 219 | 1.6 | 6.4 | 0.00 | 0.00 | 0.00 | 54 | 1014.8 |
| 20260905110001 | 30 | 292 | 1.6 | 6.4 | 0.00 | 0.00 | 0.00 | 56 | 1015.0 |
| 20260905104528 | 30 | 261 | 1.6 | 9.7 | 0.00 | 0.00 | 0.00 | 57 | 1014.9 |
| 20260905103048 | 30 | 333 | 3.2 | 9.7 | 0.00 | 0.00 | 0.00 | 57 | 1015.1 |
| 20260905101604 | 29 | 68 | 1.6 | 8.0 | 0.00 | 0.00 | 0.00 | 60 | 1015.0 |